createdAt,value
2022-07-26T00:00:16.884Z,25.90
2022-07-26T00:05:19.465Z,25.60
2022-07-26T00:10:21.754Z,25.80
2022-07-26T00:15:24.022Z,25.80
2022-07-26T00:20:27.639Z,25.80
2022-07-26T00:25:30.628Z,25.90
2022-07-26T00:30:33.111Z,26.00
2022-07-26T00:35:35.411Z,25.90
2022-07-26T00:40:37.612Z,25.70
2022-07-26T00:45:39.778Z,25.80
2022-07-26T00:50:42.027Z,25.70
2022-07-26T00:55:44.299Z,25.80
2022-07-26T01:00:46.732Z,25.80
2022-07-26T01:05:50.739Z,25.80
2022-07-26T01:10:53.420Z,25.90
2022-07-26T01:15:55.683Z,26.00
2022-07-26T01:21:01.193Z,25.90
2022-07-26T01:26:15.295Z,25.80
2022-07-26T01:31:17.623Z,25.90
2022-07-26T01:36:19.895Z,25.80
2022-07-26T01:41:37.127Z,25.80
2022-07-26T01:46:40.494Z,25.60
2022-07-26T01:51:43.271Z,25.60
2022-07-26T01:56:45.454Z,25.30
2022-07-26T02:01:47.822Z,24.70
2022-07-26T02:06:50.038Z,24.60
2022-07-26T02:11:52.135Z,24.70
2022-07-26T02:16:59.737Z,24.80
2022-07-26T02:22:02.436Z,24.80
2022-07-26T02:27:05.441Z,24.90
2022-07-26T02:32:07.879Z,24.90
2022-07-26T02:37:10.108Z,25.00
2022-07-26T02:42:12.225Z,24.90
2022-07-26T02:47:14.348Z,24.90
2022-07-26T02:52:17.411Z,25.00
2022-07-26T02:57:19.728Z,25.10
2022-07-26T03:02:22.137Z,25.10
2022-07-26T03:07:25.011Z,25.30
2022-07-26T03:12:27.127Z,25.30
2022-07-26T03:17:29.300Z,25.30
2022-07-26T03:22:34.297Z,25.30
2022-07-26T03:27:36.521Z,25.30
2022-07-26T03:32:39.061Z,25.30
2022-07-26T03:37:45.151Z,25.30
2022-07-26T03:42:48.849Z,25.40
2022-07-26T03:47:51.167Z,25.30
2022-07-26T03:52:53.303Z,25.10
2022-07-26T03:57:55.447Z,25.00
2022-07-26T04:03:12.852Z,25.00
2022-07-26T04:08:14.943Z,24.70
2022-07-26T04:13:18.445Z,24.70
2022-07-26T04:18:20.954Z,24.80
2022-07-26T04:23:26.480Z,24.90
2022-07-26T04:28:29.040Z,25.10
2022-07-26T04:33:31.442Z,25.20
2022-07-26T04:38:33.604Z,25.20
2022-07-26T04:43:35.780Z,25.20
2022-07-26T04:48:38.422Z,25.00
2022-07-26T04:53:40.638Z,24.90
2022-07-26T04:58:42.735Z,24.90
2022-07-26T05:03:44.791Z,24.80
2022-07-26T05:08:47.090Z,24.90
2022-07-26T05:13:49.252Z,25.00
2022-07-26T05:18:51.326Z,25.00
2022-07-26T05:23:54.046Z,25.30
2022-07-26T05:28:56.300Z,26.10
2022-07-26T05:33:58.493Z,27.20
2022-07-26T05:39:00.946Z,28.30
2022-07-26T05:44:03.492Z,29.10
2022-07-26T05:49:06.173Z,29.70
2022-07-26T05:54:08.938Z,29.50
2022-07-26T05:59:11.433Z,28.70
2022-07-26T06:04:14.169Z,28.20
2022-07-26T06:09:16.643Z,27.70
2022-07-26T06:14:19.576Z,27.40
2022-07-26T06:19:21.767Z,27.20
2022-07-26T06:24:24.118Z,27.20
2022-07-26T06:29:29.556Z,27.00
2022-07-26T06:34:34.863Z,26.90
2022-07-26T06:39:37.023Z,26.90
2022-07-26T06:44:39.236Z,26.80
2022-07-26T06:49:41.432Z,26.60
2022-07-26T06:54:43.715Z,26.10
2022-07-26T06:59:45.904Z,25.50
2022-07-26T07:04:48.018Z,24.90
2022-07-26T07:09:50.161Z,24.50
2022-07-26T07:14:52.429Z,24.00
2022-07-26T07:19:54.517Z,23.60
2022-07-26T07:24:56.632Z,23.30
2022-07-26T07:29:59.339Z,23.00
2022-07-26T07:35:01.488Z,22.80
2022-07-26T07:40:07.438Z,22.70
2022-07-26T07:45:11.296Z,22.70
2022-07-26T07:50:13.581Z,23.20
2022-07-26T07:55:40.656Z,23.30
2022-07-26T08:00:37.812Z,23.10
2022-07-26T08:05:40.758Z,23.10
2022-07-26T08:10:49.127Z,23.30
2022-07-26T08:15:55.815Z,23.40
2022-07-26T08:20:59.377Z,23.20
2022-07-26T08:26:06.339Z,23.00
2022-07-26T08:31:09.124Z,23.20
2022-07-26T08:36:11.295Z,23.70
2022-07-26T08:41:13.440Z,24.20
2022-07-26T08:46:15.586Z,24.50
2022-07-26T08:51:22.428Z,24.60
2022-07-26T08:56:24.608Z,24.60
2022-07-26T09:01:27.052Z,24.80
2022-07-26T09:06:29.243Z,25.10
2022-07-26T09:11:33.185Z,25.40
2022-07-26T09:16:39.560Z,25.50
2022-07-26T09:21:42.938Z,26.10
2022-07-26T09:26:56.314Z,26.10
2022-07-26T09:32:18.714Z,25.80
2022-07-26T09:37:43.643Z,25.40
2022-07-26T09:43:03.237Z,25.20
2022-07-26T09:48:05.679Z,25.00
2022-07-26T09:53:09.957Z,25.30
2022-07-26T09:58:14.575Z,25.70
2022-07-26T10:03:17.156Z,25.60
2022-07-26T10:08:19.785Z,26.00
2022-07-26T10:13:23.330Z,26.80
2022-07-26T10:34:34.195Z,25.70
2022-07-26T10:39:37.768Z,23.90
2022-07-26T10:44:44.802Z,24.30
2022-07-26T10:49:56.794Z,25.30
2022-07-26T11:00:13.404Z,26.30
2022-07-26T11:05:17.683Z,26.30
2022-07-26T11:15:37.974Z,26.80
2022-07-26T11:20:41.458Z,27.30
2022-07-26T11:25:43.662Z,27.60
2022-07-26T11:31:01.255Z,27.80
2022-07-26T11:36:06.675Z,28.10
2022-07-26T11:41:09.413Z,27.70
2022-07-26T11:46:11.775Z,27.30
2022-07-26T11:51:17.479Z,27.30
2022-07-26T11:56:22.178Z,27.50
2022-07-26T12:01:25.934Z,27.40
2022-07-26T12:06:28.977Z,27.40
2022-07-26T12:11:41.688Z,27.50
2022-07-26T12:16:46.390Z,26.70
2022-07-26T12:21:52.144Z,27.10
2022-07-26T12:37:40.411Z,27.40
2022-07-26T12:43:00.256Z,27.90
2022-07-26T12:48:12.523Z,27.90
2022-07-26T12:53:14.677Z,27.70
2022-07-26T12:58:16.864Z,27.80
2022-07-26T13:03:19.039Z,28.20
2022-07-26T13:08:21.245Z,28.20
2022-07-26T13:13:23.478Z,28.20
2022-07-26T13:18:25.668Z,28.20
2022-07-26T13:23:27.895Z,27.70
2022-07-26T13:28:30.395Z,27.80
2022-07-26T13:33:33.253Z,27.90
2022-07-26T13:38:35.828Z,28.40
2022-07-26T13:43:38.006Z,28.30
2022-07-26T13:48:58.006Z,28.40
2022-07-26T13:54:02.342Z,28.50
2022-07-26T13:59:04.697Z,28.40
2022-07-26T14:04:08.672Z,28.20
2022-07-26T14:09:12.316Z,28.40
2022-07-26T14:14:15.649Z,28.60
2022-07-26T14:19:18.431Z,29.00
2022-07-26T14:24:20.935Z,28.90
2022-07-26T14:29:23.173Z,28.80
2022-07-26T14:34:25.499Z,27.60
2022-07-26T14:39:27.706Z,28.00
2022-07-26T14:44:29.954Z,27.80
2022-07-26T14:49:32.163Z,27.90
2022-07-26T14:54:34.414Z,28.00
2022-07-26T14:59:36.571Z,28.60
2022-07-26T15:04:38.760Z,27.90
2022-07-26T15:09:41.356Z,27.80
2022-07-26T15:14:45.996Z,28.10
2022-07-26T15:19:48.153Z,28.40
2022-07-26T15:24:50.360Z,28.50
2022-07-26T15:29:52.781Z,28.60
2022-07-26T15:34:55.161Z,28.10
2022-07-26T15:39:57.550Z,27.50
2022-07-26T15:44:59.760Z,27.50
2022-07-26T15:50:06.764Z,28.30
2022-07-26T15:55:10.358Z,28.00
2022-07-26T16:00:14.088Z,27.80
2022-07-26T16:05:17.162Z,26.80
2022-07-26T16:10:19.414Z,26.00
2022-07-26T16:15:21.713Z,26.40
2022-07-26T16:20:23.999Z,26.60
2022-07-26T16:25:26.203Z,26.40
2022-07-26T16:30:28.384Z,26.50
2022-07-26T16:35:30.674Z,26.20
2022-07-26T16:40:33.377Z,26.40
2022-07-26T16:45:35.560Z,26.40
2022-07-26T16:50:37.738Z,26.50
2022-07-26T16:55:40.342Z,26.30
2022-07-26T17:00:42.583Z,26.40
2022-07-26T17:05:46.185Z,26.80
2022-07-26T17:10:48.422Z,26.40
2022-07-26T17:15:50.786Z,25.50
2022-07-26T17:20:53.927Z,24.70
2022-07-26T17:25:56.118Z,24.50
2022-07-26T17:30:58.194Z,24.40
2022-07-26T17:36:03.422Z,24.10
2022-07-26T17:41:09.084Z,24.50
2022-07-26T17:46:20.720Z,24.80
2022-07-26T17:51:22.937Z,25.10
2022-07-26T17:56:25.020Z,25.40
2022-07-26T18:01:27.830Z,24.90
2022-07-26T18:06:30.149Z,24.20
2022-07-26T18:11:32.318Z,24.40
2022-07-26T18:16:34.899Z,24.40
2022-07-26T18:21:36.979Z,24.60
2022-07-26T18:26:40.243Z,24.50
2022-07-26T18:31:42.824Z,24.70
2022-07-26T18:36:45.085Z,24.60
2022-07-26T18:41:47.302Z,24.00
2022-07-26T18:46:49.655Z,24.00
2022-07-26T18:51:51.896Z,24.40
2022-07-26T18:56:55.539Z,24.20
2022-07-26T19:01:59.563Z,24.00
2022-07-26T19:07:01.931Z,23.70
2022-07-26T19:12:04.204Z,23.50
2022-07-26T19:17:09.773Z,23.30
2022-07-26T19:22:11.946Z,23.10
2022-07-26T19:27:15.420Z,23.50
2022-07-26T19:32:17.760Z,23.70
2022-07-26T19:37:21.275Z,23.30
2022-07-26T19:42:23.423Z,23.50
2022-07-26T19:47:25.616Z,23.50
2022-07-26T19:52:28.255Z,23.60
2022-07-26T19:57:30.361Z,23.30
2022-07-26T20:02:32.687Z,23.50
2022-07-26T20:07:34.966Z,23.30
2022-07-26T20:12:38.665Z,23.60
2022-07-26T20:17:41.377Z,23.70
2022-07-26T20:22:43.711Z,23.40
2022-07-26T20:27:48.145Z,23.30
2022-07-26T20:32:50.199Z,23.20
2022-07-26T20:37:52.444Z,23.00
2022-07-26T20:42:56.002Z,23.10
2022-07-26T20:47:58.151Z,23.30
2022-07-26T20:53:00.444Z,23.20
2022-07-26T20:58:02.551Z,23.30
2022-07-26T21:03:04.758Z,23.30
2022-07-26T21:08:06.847Z,23.40
2022-07-26T21:13:08.939Z,23.50
2022-07-26T21:18:12.379Z,23.50
2022-07-26T21:23:17.675Z,23.40
2022-07-26T21:28:20.988Z,23.20
2022-07-26T21:33:26.754Z,23.00
2022-07-26T21:38:31.855Z,22.80
2022-07-26T21:43:34.461Z,22.80
2022-07-26T21:48:36.699Z,22.80
2022-07-26T21:53:38.913Z,22.80
2022-07-26T21:58:41.087Z,22.70
2022-07-26T22:03:43.428Z,22.70
2022-07-26T22:08:45.547Z,22.70
2022-07-26T22:13:47.722Z,22.60
2022-07-26T22:18:49.952Z,22.40
2022-07-26T22:23:52.177Z,22.30
2022-07-26T22:28:54.415Z,22.20
2022-07-26T22:33:56.614Z,22.20
2022-07-26T22:38:58.861Z,22.20
2022-07-26T22:44:01.089Z,22.20
2022-07-26T22:49:03.321Z,22.20
2022-07-26T22:54:05.720Z,22.10
2022-07-26T22:59:08.257Z,22.00
2022-07-26T23:04:10.721Z,21.90
2022-07-26T23:09:13.093Z,21.80
2022-07-26T23:14:15.388Z,21.70
2022-07-26T23:19:17.762Z,21.60
2022-07-26T23:24:20.084Z,21.60
2022-07-26T23:29:22.470Z,21.60
2022-07-26T23:34:24.580Z,21.50
2022-07-26T23:39:26.745Z,21.50
2022-07-26T23:44:30.623Z,21.40
2022-07-26T23:49:32.929Z,21.30
2022-07-26T23:54:35.248Z,21.30
2022-07-26T23:59:37.510Z,21.30
